createdAt,value
2022-08-20T00:00:19.944Z,98276.98
2022-08-20T00:10:45.228Z,98273.56
2022-08-20T00:20:54.863Z,98289.16
2022-08-20T00:31:00.785Z,98294.14
2022-08-20T00:41:07.165Z,98293.91
2022-08-20T00:51:15.545Z,98282.14
2022-08-20T01:01:22.763Z,98268.64
2022-08-20T01:11:28.189Z,98277.98
2022-08-20T01:21:47.971Z,98291.72
2022-08-20T01:31:57.131Z,98290.08
2022-08-20T01:42:01.679Z,98271.38
2022-08-20T01:52:06.772Z,98261.39
2022-08-20T02:02:13.119Z,98240.37
2022-08-20T02:12:18.989Z,98229.14
2022-08-20T02:22:27.621Z,98214.86
2022-08-20T02:32:34.337Z,98214.90
2022-08-20T02:42:42.852Z,98209.68
2022-08-20T02:52:51.784Z,98207.73
2022-08-20T03:02:57.521Z,98195.71
2022-08-20T03:13:02.798Z,98200.86
2022-08-20T03:23:08.884Z,98185.92
2022-08-20T03:33:14.403Z,98171.23
2022-08-20T03:43:20.513Z,98178.73
2022-08-20T03:53:24.307Z,98185.65
2022-08-20T04:03:29.775Z,98168.60
2022-08-20T04:13:37.992Z,98176.59
2022-08-20T04:23:47.197Z,98185.84
2022-08-20T04:33:53.076Z,98195.27
2022-08-20T04:43:59.660Z,98193.05
2022-08-20T04:54:05.362Z,98187.39
2022-08-20T05:04:11.107Z,98175.83
2022-08-20T05:14:16.659Z,98169.27
2022-08-20T05:24:22.225Z,98161.91
2022-08-20T05:34:28.149Z,98167.03
2022-08-20T05:44:34.087Z,98151.58
2022-08-20T05:54:40.168Z,98166.57
2022-08-20T06:04:45.587Z,98170.14
2022-08-20T06:14:50.177Z,98180.64
2022-08-20T06:24:55.291Z,98180.98
2022-08-20T06:35:01.686Z,98185.00
2022-08-20T06:45:06.468Z,98199.61
2022-08-20T06:55:12.338Z,98209.57
2022-08-20T07:05:17.840Z,98207.80
2022-08-20T07:15:22.379Z,98219.80
2022-08-20T07:25:28.197Z,98220.42
2022-08-20T07:35:33.561Z,98230.27
2022-08-20T07:45:38.328Z,98227.17
2022-08-20T07:55:59.265Z,98233.27
2022-08-20T08:06:04.656Z,98237.02
2022-08-20T08:16:11.936Z,98228.54
2022-08-20T08:26:19.021Z,98236.85
2022-08-20T08:36:24.399Z,98243.84
2022-08-20T08:46:40.582Z,98237.30
2022-08-20T08:56:50.207Z,98235.90
2022-08-20T09:06:56.443Z,98237.02
2022-08-20T09:17:02.054Z,98236.66
2022-08-20T09:27:08.091Z,98239.78
2022-08-20T09:37:13.941Z,98236.69
2022-08-20T09:47:19.875Z,98240.30
2022-08-20T09:57:26.405Z,98252.63
2022-08-20T10:07:31.067Z,98243.30
2022-08-20T10:17:37.912Z,98240.16
2022-08-20T10:27:43.456Z,98228.25
2022-08-20T10:37:49.042Z,98227.01
2022-08-20T10:47:54.744Z,98228.92
2022-08-20T10:58:00.450Z,98227.52
2022-08-20T11:08:05.454Z,98230.88
2022-08-20T11:18:12.405Z,98218.11
2022-08-20T11:28:31.302Z,98211.62
2022-08-20T11:38:37.854Z,98222.23
2022-08-20T11:48:43.329Z,98220.20
2022-08-20T11:58:49.002Z,98210.76
2022-08-20T12:08:54.406Z,98205.37
2022-08-20T12:19:00.067Z,98194.77
2022-08-20T12:29:05.604Z,98194.70
2022-08-20T12:39:11.176Z,98180.71
2022-08-20T12:49:16.613Z,98173.48
2022-08-20T12:59:25.948Z,98168.45
2022-08-20T13:09:32.908Z,98165.79
2022-08-20T13:19:39.737Z,98167.82
2022-08-20T13:29:47.584Z,98171.75
2022-08-20T13:39:53.829Z,98181.95
2022-08-20T14:00:06.179Z,98199.33
2022-08-20T14:10:14.052Z,98192.70
2022-08-20T14:20:21.470Z,98195.67
2022-08-20T14:30:28.808Z,98195.00
2022-08-20T14:40:35.113Z,98199.46
2022-08-20T14:50:40.655Z,98201.10
2022-08-20T15:00:47.213Z,98200.70
2022-08-20T15:10:52.765Z,98212.63
2022-08-20T15:20:58.526Z,98207.45
2022-08-20T15:31:09.770Z,98193.52
2022-08-20T15:41:15.242Z,98197.69
2022-08-20T15:51:28.261Z,98181.49
2022-08-20T16:01:33.016Z,98176.59
2022-08-20T16:11:38.629Z,98177.36
2022-08-20T16:21:46.212Z,98191.60
2022-08-20T16:31:55.914Z,98179.88
2022-08-20T16:42:05.973Z,98159.07
2022-08-20T16:52:14.008Z,98155.39
2022-08-20T17:02:20.488Z,98188.91
2022-08-20T17:12:28.573Z,98203.71
2022-08-20T17:22:40.785Z,98214.92
2022-08-20T17:32:57.305Z,98224.25
2022-08-20T17:43:05.541Z,98219.41
2022-08-20T18:00:49.197Z,98206.00
2022-08-20T18:10:57.061Z,98213.50
2022-08-20T18:21:22.005Z,98222.67
2022-08-20T18:31:27.621Z,98256.96
2022-08-20T18:41:36.102Z,98273.91
2022-08-20T18:51:49.458Z,98281.22
2022-08-20T19:01:56.751Z,98273.75
2022-08-20T19:12:16.557Z,98259.41
2022-08-20T19:22:24.086Z,98262.68
2022-08-20T19:32:33.527Z,98241.70
2022-08-20T19:42:45.712Z,98234.14
2022-08-20T19:52:51.810Z,98221.64
2022-08-20T20:03:09.096Z,98209.09
2022-08-20T20:13:19.259Z,98185.58
2022-08-20T20:23:38.447Z,98185.47
2022-08-20T20:33:52.722Z,98187.55
2022-08-20T20:44:01.900Z,98192.91
2022-08-20T20:54:24.174Z,98186.19
2022-08-20T21:04:32.051Z,98186.42
2022-08-20T21:14:40.042Z,98183.13
2022-08-20T21:24:48.784Z,98196.89
2022-08-20T21:34:56.064Z,98206.44
2022-08-20T21:45:03.830Z,98200.32
2022-08-20T21:55:11.165Z,98189.20
2022-08-20T22:05:18.531Z,98189.59
2022-08-20T22:25:32.384Z,98186.95
2022-08-20T22:45:51.048Z,98193.37
2022-08-20T22:55:58.505Z,98186.41
2022-08-20T23:06:06.167Z,98168.39
2022-08-20T23:16:13.734Z,98149.49
2022-08-20T23:26:23.237Z,98148.60
2022-08-20T23:36:30.308Z,98142.66
2022-08-20T23:46:40.303Z,98133.96
2022-08-20T23:56:47.597Z,98128.75
